Time;durP1;ratioP1;P1;durP2;ratioP2;P2;SDS_P1;SDS_P2;PMS_P1;PMS_P2;Temp;Humidity;BMP_temperature;BMP_pressure;BME280_temperature;BME280_humidity;BME280_pressure;Samples;Min_cycle;Max_cycle;Signal;HPM_P1;HPM_P2
2021/05/28 00:03:41;;;;;;;;;21.67;21.67;;;;;;;;8656367;41;10144;-59
2021/05/28 00:09:43;;;;;;;;;20.67;20.67;;;;;;;;8656493;41;10297;-58
2021/05/28 00:15:45;;;;;;;;;25.33;22.67;;;;;;;;8656635;41;10211;-59
2021/05/28 00:21:47;;;;;;;;;21.33;20.00;;;;;;;;8655719;41;10713;-58
2021/05/28 00:27:49;;;;;;;;;20.00;20.00;;;;;;;;8656777;41;10188;-58
2021/05/28 00:33:51;;;;;;;;;22.00;19.00;;;;;;;;8656385;41;10219;-58
2021/05/28 00:39:53;;;;;;;;;18.00;18.00;;;;;;;;8655228;41;10500;-58
2021/05/28 00:45:55;;;;;;;;;24.00;21.00;;;;;;;;8655540;41;10136;-58
2021/05/28 00:51:58;;;;;;;;;19.67;19.33;;;;;;;;8655015;41;10232;-58
2021/05/28 00:58:00;;;;;;;;;21.33;20.33;;;;;;;;8655370;41;10951;-57
2021/05/28 01:04:02;;;;;;;;;27.00;22.00;;;;;;;;8655803;41;10140;-57
2021/05/28 01:10:05;;;;;;;;;21.00;20.33;;;;;;;;8654953;41;10208;-58
2021/05/28 01:16:07;;;;;;;;;26.33;23.00;;;;;;;;8654306;41;10232;-58
2021/05/28 01:22:09;;;;;;;;;27.33;25.67;;;;;;;;8653911;41;10230;-57
2021/05/28 01:28:11;;;;;;;;;25.33;24.00;;;;;;;;8654740;41;10220;-58
2021/05/28 01:34:13;;;;;;;;;27.00;25.33;;;;;;;;8654489;41;10136;-58
2021/05/28 01:40:15;;;;;;;;;30.33;29.33;;;;;;;;8655162;41;10215;-59
2021/05/28 01:46:17;;;;;;;;;35.33;31.33;;;;;;;;8654713;41;10193;-58
2021/05/28 01:52:25;;;;;;;;;33.33;29.00;;;;;;;;8653766;41;10140;-58
2021/05/28 01:58:27;;;;;;;;;32.00;29.33;;;;;;;;8655424;41;10215;-59
2021/05/28 02:04:29;;;;;;;;;25.00;24.00;;;;;;;;8654367;41;10175;-58
2021/05/28 02:10:32;;;;;;;;;34.00;30.67;;;;;;;;8652810;41;10242;-58
2021/05/28 02:16:34;;;;;;;;;36.67;36.00;;;;;;;;8654295;41;10756;-59
2021/05/28 02:22:37;;;;;;;;;35.33;30.67;;;;;;;;8653346;41;10200;-58
2021/05/28 02:28:39;;;;;;;;;31.00;27.67;;;;;;;;8653809;41;10446;-57
2021/05/28 02:34:42;;;;;;;;;31.00;30.00;;;;;;;;8653354;41;10356;-57
2021/05/28 02:40:43;;;;;;;;;33.67;32.33;;;;;;;;8654173;41;11559;-58
2021/05/28 02:46:48;;;;;;;;;28.33;27.00;;;;;;;;8656344;41;10807;-57
2021/05/28 02:52:49;;;;;;;;;12.33;10.00;;;;;;;;8663912;41;10189;-58
2021/05/28 02:58:51;;;;;;;;;35.33;32.33;;;;;;;;8656919;41;10238;-58
2021/05/28 03:04:53;;;;;;;;;36.00;33.67;;;;;;;;8657442;41;10209;-57
2021/05/28 03:10:56;;;;;;;;;34.33;32.33;;;;;;;;8656485;41;10214;-58
2021/05/28 03:16:58;;;;;;;;;28.33;28.33;;;;;;;;8657087;41;10728;-59
2021/05/28 03:23:00;;;;;;;;;35.33;34.67;;;;;;;;8657069;41;10337;-58
2021/05/28 03:29:02;;;;;;;;;37.00;35.00;;;;;;;;8656660;41;10213;-58
2021/05/28 03:35:06;;;;;;;;;27.67;27.67;;;;;;;;8657387;41;10199;-58
2021/05/28 03:41:08;;;;;;;;;33.00;33.00;;;;;;;;8656017;41;10193;-58
2021/05/28 03:47:10;;;;;;;;;31.67;30.67;;;;;;;;8656327;41;10312;-59
2021/05/28 03:53:12;;;;;;;;;44.33;36.00;;;;;;;;8655400;41;10234;-58
2021/05/28 03:59:14;;;;;;;;;35.67;32.67;;;;;;;;8657035;41;10148;-58
2021/05/28 04:05:17;;;;;;;;;38.00;37.00;;;;;;;;9696558;23;10129;-58
2021/05/28 04:11:19;;;;;;;;;47.00;41.33;;;;;;;;8677911;41;10128;-58
2021/05/28 04:17:21;;;;;;;;;41.33;37.00;;;;;;;;8682352;41;10807;-59
2021/05/28 04:23:23;;;;;;;;;34.67;33.00;;;;;;;;8672319;41;10726;-56
2021/05/28 04:29:25;;;;;;;;;34.00;31.33;;;;;;;;8684430;41;10116;-57
2021/05/28 04:35:28;;;;;;;;;38.00;35.00;;;;;;;;8683305;41;10258;-57
2021/05/28 04:41:30;;;;;;;;;35.33;34.67;;;;;;;;8675773;41;10202;-58
2021/05/28 04:47:32;;;;;;;;;40.00;36.33;;;;;;;;8681072;41;10196;-57
2021/05/28 04:53:34;;;;;;;;;37.67;35.33;;;;;;;;8682458;41;10169;-58
2021/05/28 04:59:38;;;;;;;;;38.33;34.00;;;;;;;;8681818;41;10124;-59
2021/05/28 05:05:40;;;;;;;;;38.67;35.67;;;;;;;;8663461;41;10193;-58
2021/05/28 05:11:42;;;;;;;;;25.67;24.00;;;;;;;;8658750;41;10175;-59
2021/05/28 05:17:44;;;;;;;;;34.33;33.67;;;;;;;;8657291;41;10177;-58
2021/05/28 05:23:46;;;;;;;;;37.33;35.00;;;;;;;;8656075;41;10221;-57
2021/05/28 05:29:48;;;;;;;;;31.67;31.67;;;;;;;;8656623;41;10249;-58
2021/05/28 05:35:50;;;;;;;;;37.00;36.33;;;;;;;;8656500;41;10144;-58
2021/05/28 05:41:52;;;;;;;;;37.67;35.00;;;;;;;;8658468;41;10121;-57
2021/05/28 05:47:54;;;;;;;;;40.00;37.00;;;;;;;;8658001;41;10225;-58
2021/05/28 05:53:56;;;;;;;;;42.00;37.67;;;;;;;;8656930;41;10199;-55
2021/05/28 05:59:57;;;;;;;;;43.33;41.33;;;;;;;;8659187;41;10231;-56
2021/05/28 06:06:00;;;;;;;;;41.67;39.00;;;;;;;;8669194;41;10193;-58
2021/05/28 06:12:02;;;;;;;;;36.67;33.67;;;;;;;;8682241;41;10190;-58
2021/05/28 06:18:05;;;;;;;;;41.67;36.67;;;;;;;;8659024;41;10570;-58
2021/05/28 06:24:07;;;;;;;;;45.67;39.67;;;;;;;;8660815;41;10221;-58
2021/05/28 06:30:10;;;;;;;;;42.00;39.00;;;;;;;;8661401;41;10738;-58
2021/05/28 06:36:12;;;;;;;;;44.00;36.33;;;;;;;;8661385;41;10351;-57
2021/05/28 06:42:14;;;;;;;;;59.00;48.67;;;;;;;;8660487;41;10129;-58
2021/05/28 06:48:16;;;;;;;;;44.00;38.00;;;;;;;;8659717;41;10185;-55
2021/05/28 06:54:18;;;;;;;;;47.50;43.00;;;;;;;;8670693;41;10315;-59
2021/05/28 07:00:22;;;;;;;;;52.67;44.33;;;;;;;;8661162;41;10223;-59
2021/05/28 07:06:23;;;;;;;;;41.00;36.67;;;;;;;;8681610;41;10498;-59
2021/05/28 07:12:29;;;;;;;;;49.33;42.33;;;;;;;;8679904;41;10113;-59
2021/05/28 07:18:31;;;;;;;;;40.67;39.67;;;;;;;;8688555;41;10193;-59
2021/05/28 07:24:33;;;;;;;;;46.67;40.00;;;;;;;;8681730;41;10219;-60
2021/05/28 07:30:35;;;;;;;;;73.33;60.00;;;;;;;;8681570;41;10360;-57
2021/05/28 07:36:37;;;;;;;;;25.67;22.33;;;;;;;;8679446;41;10510;-57
2021/05/28 07:42:39;;;;;;;;;28.67;27.00;;;;;;;;8680742;41;10143;-61
2021/05/28 07:48:42;;;;;;;;;54.33;43.67;;;;;;;;8681508;41;10202;-60
2021/05/28 07:54:43;;;;;;;;;78.00;60.67;;;;;;;;8667033;41;10230;-60
2021/05/28 08:00:45;;;;;;;;;40.00;38.67;;;;;;;;8658503;41;10271;-57
2021/05/28 08:06:48;;;;;;;;;45.33;40.33;;;;;;;;8656172;41;10231;-57
2021/05/28 08:12:51;;;;;;;;;25.33;25.00;;;;;;;;8663340;41;10587;-60
2021/05/28 08:18:53;;;;;;;;;36.00;34.33;;;;;;;;8674962;41;10141;-59
2021/05/28 08:24:55;;;;;;;;;46.33;39.00;;;;;;;;8647130;41;10211;-60
2021/05/28 08:30:57;;;;;;;;;87.00;68.25;;;;;;;;8656633;41;10790;-58
2021/05/28 08:36:59;;;;;;;;;70.33;56.67;;;;;;;;8661248;41;10317;-58
2021/05/28 08:43:03;;;;;;;;;54.00;42.00;;;;;;;;8676518;41;10115;-55
2021/05/28 08:49:09;;;;;;;;;40.33;34.67;;;;;;;;8661832;41;10247;-57
2021/05/28 08:55:11;;;;;;;;;38.00;33.33;;;;;;;;8663921;41;10213;-56
2021/05/28 09:01:14;;;;;;;;;40.67;38.00;;;;;;;;8679608;41;10123;-57
2021/05/28 09:07:22;;;;;;;;;31.67;29.67;;;;;;;;8655384;41;10211;-57
2021/05/28 09:13:26;;;;;;;;;23.67;22.33;;;;;;;;8661692;41;10864;-58
2021/05/28 09:19:28;;;;;;;;;30.67;30.00;;;;;;;;8659260;41;10227;-58
2021/05/28 09:26:02;;;;;;;;;16.33;14.33;;;;;;;;8671672;41;10177;-61
2021/05/28 09:32:21;;;;;;;;;21.33;20.67;;;;;;;;8674450;41;10185;-58
2021/05/28 09:38:24;;;;;;;;;16.00;13.33;;;;;;;;8674861;41;10130;-58
2021/05/28 09:44:32;;;;;;;;;12.00;10.33;;;;;;;;8675274;41;10649;-60
2021/05/28 09:50:43;;;;;;;;;13.33;12.33;;;;;;;;8677578;41;10113;-60
2021/05/28 09:56:45;;;;;;;;;18.00;13.67;;;;;;;;8676579;41;10157;-60
2021/05/28 10:02:47;;;;;;;;;14.00;13.67;;;;;;;;8676216;41;10350;-58
2021/05/28 10:08:49;;;;;;;;;10.00;10.00;;;;;;;;8675252;41;10139;-59
2021/05/28 10:14:52;;;;;;;;;6.33;6.33;;;;;;;;8676802;41;10071;-59
2021/05/28 10:20:55;;;;;;;;;8.00;8.00;;;;;;;;8677411;41;10122;-61
2021/05/28 10:26:57;;;;;;;;;6.00;5.33;;;;;;;;8669103;41;10536;-62
2021/05/28 10:33:24;;;;;;;;;8.33;7.67;;;;;;;;8664675;41;10750;-59
2021/05/28 10:39:27;;;;;;;;;10.00;10.00;;;;;;;;8675869;41;10848;-61
2021/05/28 10:45:55;;;;;;;;;10.00;9.00;;;;;;;;8659966;41;10739;-60
2021/05/28 10:51:57;;;;;;;;;11.67;10.33;;;;;;;;8650485;41;10157;-58
2021/05/28 10:57:59;;;;;;;;;9.00;9.00;;;;;;;;8652178;41;10101;-59
2021/05/28 11:04:03;;;;;;;;;12.33;11.00;;;;;;;;8664168;41;10419;-60
2021/05/28 11:10:24;;;;;;;;;12.33;10.33;;;;;;;;8676064;41;11071;-61
2021/05/28 11:16:27;;;;;;;;;15.00;15.00;;;;;;;;8665649;41;11207;-60
2021/05/28 11:22:37;;;;;;;;;12.50;11.25;;;;;;;;8659647;41;10970;-59
2021/05/28 11:28:51;;;;;;;;;12.75;10.25;;;;;;;;8666651;41;10903;-59
2021/05/28 11:35:12;;;;;;;;;15.00;14.33;;;;;;;;8655699;41;10558;-59
2021/05/28 11:41:13;;;;;;;;;15.50;15.50;;;;;;;;8655139;41;10959;-61
2021/05/28 11:47:16;;;;;;;;;14.75;14.75;;;;;;;;8656531;41;11260;-60
2021/05/28 11:53:19;;;;;;;;;15.50;15.25;;;;;;;;8669877;41;11002;-59
2021/05/28 11:59:21;;;;;;;;;26.33;22.00;;;;;;;;8658202;41;10194;-58
2021/05/28 12:05:26;;;;;;;;;12.25;10.75;;;;;;;;8660712;41;10933;-56
2021/05/28 12:11:28;;;;;;;;;18.67;18.00;;;;;;;;8657672;41;10694;-60
2021/05/28 12:17:33;;;;;;;;;10.50;10.50;;;;;;;;8658593;41;11053;-59
2021/05/28 12:23:39;;;;;;;;;16.67;15.33;;;;;;;;8675076;41;10677;-59
2021/05/28 12:29:44;;;;;;;;;15.00;14.75;;;;;;;;8659396;41;10788;-60
2021/05/28 12:35:52;;;;;;;;;14.75;12.75;;;;;;;;8675660;41;10735;-57
2021/05/28 12:41:54;;;;;;;;;8.50;8.50;;;;;;;;8668354;41;10694;-60
2021/05/28 12:47:56;;;;;;;;;86.33;74.00;;;;;;;;8653227;41;10225;-57
2021/05/28 12:54:13;;;;;;;;;36.00;32.75;;;;;;;;8653528;41;11142;-58
2021/05/28 13:00:30;;;;;;;;;21.50;19.00;;;;;;;;8653733;41;10930;-55
2021/05/28 13:06:41;;;;;;;;;10.00;5.50;;;;;;;;8655049;41;10874;-58
2021/05/28 13:12:43;;;;;;;;;7.50;7.25;;;;;;;;8661408;41;10562;-57
2021/05/28 13:18:47;;;;;;;;;8.75;8.25;;;;;;;;8668437;41;10832;-58
2021/05/28 13:24:49;;;;;;;;;7.00;6.25;;;;;;;;8667411;41;10795;-58
2021/05/28 13:31:24;;;;;;;;;8.50;7.50;;;;;;;;8679786;41;10668;-57
2021/05/28 13:37:27;;;;;;;;;26.50;24.00;;;;;;;;8656750;41;11165;-56
2021/05/28 13:43:29;;;;;;;;;30.00;25.50;;;;;;;;8654870;41;11040;-57
2021/05/28 13:49:31;;;;;;;;;5.00;5.00;;;;;;;;8653862;41;10728;-59
2021/05/28 13:55:36;;;;;;;;;5.25;5.00;;;;;;;;8680342;41;10705;-59
2021/05/28 14:01:38;;;;;;;;;6.25;6.25;;;;;;;;8676355;41;10638;-59
2021/05/28 14:07:40;;;;;;;;;7.00;6.75;;;;;;;;8677888;41;10909;-60
2021/05/28 14:13:44;;;;;;;;;5.00;5.00;;;;;;;;8671249;41;11183;-58
2021/05/28 14:19:46;;;;;;;;;19.00;17.25;;;;;;;;8678940;41;10864;-59
2021/05/28 14:25:48;;;;;;;;;8.50;6.00;;;;;;;;8678846;41;10713;-59
2021/05/28 14:31:50;;;;;;;;;3.75;3.75;;;;;;;;8668770;41;10839;-59
2021/05/28 14:37:52;;;;;;;;;6.75;6.75;;;;;;;;8654826;41;11019;-60
2021/05/28 14:43:55;;;;;;;;;7.00;5.75;;;;;;;;8659598;41;10798;-59
2021/05/28 14:49:57;;;;;;;;;11.25;9.75;;;;;;;;8658480;41;10780;-59
2021/05/28 14:55:59;;;;;;;;;10.50;9.25;;;;;;;;8675378;41;10708;-61
2021/05/28 15:02:02;;;;;;;;;6.25;5.00;;;;;;;;8681907;41;10717;-59
2021/05/28 15:08:05;;;;;;;;;8.75;8.00;;;;;;;;8680866;41;11133;-62
2021/05/28 15:14:07;;;;;;;;;8.50;7.25;;;;;;;;8674286;41;10654;-59
2021/05/28 15:20:11;;;;;;;;;6.00;5.25;;;;;;;;8660139;41;10768;-61
2021/05/28 15:26:13;;;;;;;;;11.75;9.00;;;;;;;;8658521;41;10817;-59
2021/05/28 15:32:15;;;;;;;;;11.25;11.25;;;;;;;;8659523;41;10919;-61
2021/05/28 15:38:17;;;;;;;;;16.25;14.75;;;;;;;;8657741;41;10834;-59
2021/05/28 15:44:19;;;;;;;;;18.33;18.33;;;;;;;;8657583;41;10895;-60
2021/05/28 15:50:23;;;;;;;;;10.75;8.50;;;;;;;;8657426;41;11002;-59
2021/05/28 15:56:25;;;;;;;;;9.50;9.50;;;;;;;;8657907;41;10877;-59
2021/05/28 16:02:27;;;;;;;;;14.00;12.75;;;;;;;;8664634;41;10919;-58
2021/05/28 16:08:29;;;;;;;;;15.00;14.25;;;;;;;;8667176;41;10947;-59
2021/05/28 16:14:32;;;;;;;;;18.67;15.33;;;;;;;;8657005;41;10225;-60
2021/05/28 16:20:35;;;;;;;;;12.67;12.33;;;;;;;;8658120;41;10714;-60
2021/05/28 16:26:39;;;;;;;;;37.33;35.33;;;;;;;;8657086;41;10144;-59
2021/05/28 16:32:42;;;;;;;;;21.00;18.33;;;;;;;;8657061;41;10145;-60
2021/05/28 16:38:44;;;;;;;;;18.67;17.33;;;;;;;;8656845;41;10367;-60
2021/05/28 16:44:46;;;;;;;;;15.33;12.67;;;;;;;;8669350;41;10137;-60
2021/05/28 16:50:55;;;;;;;;;15.67;15.67;;;;;;;;8657859;41;10167;-59
2021/05/28 16:56:57;;;;;;;;;16.33;16.33;;;;;;;;8657247;41;10746;-61
2021/05/28 17:03:01;;;;;;;;;15.00;11.00;;;;;;;;8678727;41;10131;-59
2021/05/28 17:09:04;;;;;;;;;13.00;13.00;;;;;;;;8678339;41;10103;-60
2021/05/28 17:15:07;;;;;;;;;11.00;10.67;;;;;;;;8680634;41;10088;-59
2021/05/28 17:21:09;;;;;;;;;14.33;14.33;;;;;;;;8679855;41;10736;-59
2021/05/28 17:27:11;;;;;;;;;13.67;11.33;;;;;;;;8679957;41;10094;-59
2021/05/28 17:33:13;;;;;;;;;13.67;13.67;;;;;;;;8680394;41;10605;-59
2021/05/28 17:39:16;;;;;;;;;14.00;13.67;;;;;;;;8680145;41;10157;-60
2021/05/28 17:45:21;;;;;;;;;14.00;14.00;;;;;;;;8679125;41;10124;-58
2021/05/28 17:51:23;;;;;;;;;9.67;9.67;;;;;;;;8681201;41;10003;-58
2021/05/28 17:57:25;;;;;;;;;17.33;15.00;;;;;;;;8678819;41;10010;-59
2021/05/28 18:03:27;;;;;;;;;15.00;15.00;;;;;;;;8677991;41;10122;-58
2021/05/28 18:09:32;;;;;;;;;11.00;11.00;;;;;;;;8679070;41;10076;-59
2021/05/28 18:15:34;;;;;;;;;14.67;11.33;;;;;;;;8655095;41;10246;-59
2021/05/28 18:21:36;;;;;;;;;17.67;15.33;;;;;;;;8655366;41;10196;-58
2021/05/28 18:27:38;;;;;;;;;19.00;19.00;;;;;;;;8655650;41;10318;-60
2021/05/28 18:33:40;;;;;;;;;14.33;14.00;;;;;;;;8655169;41;10179;-60
2021/05/28 18:39:42;;;;;;;;;17.67;15.67;;;;;;;;8654930;41;10160;-58
2021/05/28 18:45:44;;;;;;;;;12.33;11.00;;;;;;;;8645093;40;10079;-59
2021/05/28 18:51:47;;;;;;;;;16.00;15.00;;;;;;;;8655507;40;9980;-58
2021/05/28 18:57:49;;;;;;;;;15.33;15.33;;;;;;;;8694564;40;10528;-60
2021/05/28 19:03:51;;;;;;;;;15.00;14.00;;;;;;;;8702156;41;10102;-59
2021/05/28 19:09:53;;;;;;;;;15.67;14.67;;;;;;;;8700947;41;10079;-60
2021/05/28 19:15:56;;;;;;;;;15.67;15.67;;;;;;;;8701661;41;10181;-58
2021/05/28 19:21:58;;;;;;;;;13.67;13.67;;;;;;;;8701287;41;10439;-60
2021/05/28 19:28:00;;;;;;;;;8.00;8.00;;;;;;;;8704255;40;10161;-59
2021/05/28 19:34:02;;;;;;;;;14.33;13.67;;;;;;;;8695286;41;10133;-59
2021/05/28 19:40:05;;;;;;;;;15.67;15.67;;;;;;;;8681192;41;10293;-60
2021/05/28 19:46:09;;;;;;;;;18.67;17.67;;;;;;;;8687709;41;10128;-59
2021/05/28 19:52:17;;;;;;;;;20.33;20.00;;;;;;;;8704578;40;10701;-59
2021/05/28 19:58:21;;;;;;;;;22.33;22.33;;;;;;;;8704490;41;10178;-60
2021/05/28 20:04:22;;;;;;;;;20.00;20.00;;;;;;;;8712157;40;10102;-58
2021/05/28 20:10:25;;;;;;;;;22.67;21.33;;;;;;;;8704607;40;10169;-59
2021/05/28 20:16:28;;;;;;;;;17.33;17.33;;;;;;;;8704348;40;10144;-59
2021/05/28 20:22:30;;;;;;;;;23.33;22.67;;;;;;;;8704732;41;10170;-59
2021/05/28 20:28:33;;;;;;;;;25.67;25.33;;;;;;;;8704293;41;10169;-58
2021/05/28 20:34:35;;;;;;;;;25.33;23.67;;;;;;;;8702817;40;10457;-58
2021/05/28 20:40:37;;;;;;;;;20.33;20.33;;;;;;;;8703918;41;10145;-58
2021/05/28 20:46:39;;;;;;;;;23.33;23.33;;;;;;;;8704346;41;10169;-59
2021/05/28 20:52:42;;;;;;;;;29.67;25.00;;;;;;;;8703177;41;10142;-58
2021/05/28 20:58:46;;;;;;;;;24.67;22.00;;;;;;;;8704134;41;10709;-58
2021/05/28 21:04:48;;;;;;;;;26.33;26.33;;;;;;;;8704617;41;10193;-59
2021/05/28 21:10:50;;;;;;;;;33.67;29.67;;;;;;;;8703317;40;10116;-58
2021/05/28 21:16:52;;;;;;;;;33.00;30.33;;;;;;;;8703805;41;10189;-58
2021/05/28 21:22:54;;;;;;;;;36.67;30.00;;;;;;;;8704510;40;10286;-58
2021/05/28 21:28:56;;;;;;;;;30.00;28.67;;;;;;;;8704251;40;10090;-58
2021/05/28 21:34:58;;;;;;;;;36.33;31.67;;;;;;;;8703812;41;10172;-58
2021/05/28 21:41:00;;;;;;;;;35.67;32.67;;;;;;;;8703433;41;10760;-59
2021/05/28 21:47:02;;;;;;;;;28.33;27.67;;;;;;;;8705445;40;10131;-59
2021/05/28 21:53:04;;;;;;;;;31.67;29.33;;;;;;;;8703034;41;10139;-58
2021/05/28 21:59:08;;;;;;;;;27.33;25.00;;;;;;;;8704334;40;10176;-58
2021/05/28 22:05:10;;;;;;;;;26.67;26.67;;;;;;;;8703192;40;10220;-59
2021/05/28 22:11:12;;;;;;;;;27.00;23.00;;;;;;;;8702816;41;10239;-59
2021/05/28 22:17:14;;;;;;;;;26.00;25.00;;;;;;;;8708279;40;10138;-58
2021/05/28 22:23:16;;;;;;;;;26.33;26.00;;;;;;;;8701328;41;10314;-59
2021/05/28 22:35:30;;;;;;;;;23.33;21.00;;;;;;;;8702637;41;10712;-61
2021/05/28 22:41:36;;;;;;;;;27.33;23.33;;;;;;;;8702362;41;10122;-59
2021/05/28 22:47:38;;;;;;;;;23.67;23.00;;;;;;;;8701835;41;10242;-59
2021/05/28 22:53:43;;;;;;;;;24.00;22.00;;;;;;;;8702118;40;10146;-58
2021/05/28 22:59:45;;;;;;;;;23.33;22.67;;;;;;;;8697756;41;10178;-57
2021/05/28 23:05:47;;;;;;;;;27.33;25.33;;;;;;;;8683011;41;10188;-57
2021/05/28 23:17:54;;;;;;;;;14.67;14.00;;;;;;;;8683996;41;10699;-57
2021/05/28 23:23:58;;;;;;;;;24.00;21.67;;;;;;;;8682309;41;10164;-58
2021/05/28 23:30:00;;;;;;;;;16.67;16.00;;;;;;;;8682066;41;10300;-58
2021/05/28 23:36:03;;;;;;;;;16.00;15.00;;;;;;;;8681610;41;10334;-58
2021/05/28 23:42:11;;;;;;;;;14.33;11.33;;;;;;;;8681478;41;10127;-58
2021/05/28 23:48:13;;;;;;;;;13.00;13.00;;;;;;;;8681561;41;11005;-58
2021/05/28 23:54:15;;;;;;;;;9.00;9.00;;;;;;;;8680794;41;10581;-58
